• Join FlightAware (Why Join?)
  • Login
  • US Flag 
02:15PM EDT


 

Airport Tracker/Info


-or-


 

Live Flight TrackerFlight Track Log ✈ AFL1855 ✈ 26-May-2014 ✈ UBBB / GYD - UUEE / SVO

Flight Track Log - Related Links

Times and Time Zones

All times are in EDT time to prevent confusion due to time zone crossing. See the AFL1855 flight status page for this flight to view local times or setup timezone preferences in your user account.

Time Position Orientation Groundspeed Altitude Reporting Facility
EDT Latitude Longitude Course Direction KTS MPH feet Rate Location/Type
08:07AM 43.4413 48.7013 334° Northwest  Level Estimated
08:08AM 43.5617 48.6202 334° Northwest  Level Estimated
08:09AM 43.6821 48.5387 334° Northwest  Level Estimated
08:10AM 43.8024 48.4569 334° Northwest  Level Estimated
08:11AM 43.9227 48.3748 334° Northwest  Level Estimated
08:12AM 44.0429 48.2923 334° Northwest  Level Estimated
08:13AM 44.1630 48.2096 334° Northwest  Level Estimated
08:14AM 44.2627 48.1406 334° Northwest  Level Estimated
08:15AM 44.3624 48.0714 334° Northwest  Level Estimated
08:16AM 44.4620 48.0019 334° Northwest  Level Estimated
08:17AM 44.5615 47.9323 334° Northwest  Level Estimated
08:18AM 44.6610 47.8623 333° Northwest  Level Estimated
08:19AM 44.7605 47.7922 333° Northwest  Level Estimated
08:20AM 44.8599 47.7218 333° Northwest  Level Estimated
08:21AM 44.9593 47.6511 333° Northwest  Level Estimated
08:22AM 45.0587 47.5802 333° Northwest  Level Estimated
08:23AM 45.1580 47.5091 333° Northwest  Level Estimated
08:24AM 45.2572 47.4377 333° Northwest  Level Estimated
08:25AM 45.3564 47.3661 333° Northwest  Level Estimated
08:26AM 45.4556 47.2942 333° Northwest  Level Estimated
08:27AM 45.5547 47.2221 333° Northwest  Level Estimated
08:28AM 45.6538 47.1497 333° Northwest  Level Estimated
08:29AM 45.7528 47.0770 333° Northwest  Level Estimated
08:30AM 45.8518 47.0041 333° Northwest  Level Estimated
08:31AM 45.9507 46.9309 333° Northwest  Level Estimated
08:32AM 46.0496 46.8575 333° Northwest  Level Estimated
08:33AM 46.1485 46.7838 333° Northwest  Level Estimated
08:34AM 46.2472 46.7099 333° Northwest  Level Estimated
08:35AM 46.3460 46.6356 333° Northwest  Level Estimated
08:36AM 46.4447 46.5611 333° Northwest  Level Estimated
08:37AM 46.5433 46.4864 332° Northwest  Level Estimated
08:38AM 46.6419 46.4113 332° Northwest  Level Estimated
08:39AM 46.7405 46.3360 332° Northwest  Level Estimated
08:40AM 46.8390 46.2604 332° Northwest  Level Estimated
08:41AM 46.9375 46.1846 332° Northwest  Level Estimated
08:42AM 47.0359 46.1084 332° Northwest  Level Estimated
08:43AM 47.1342 46.0320 332° Northwest  Level Estimated
08:44AM 47.2325 45.9553 332° Northwest  Level Estimated
08:45AM 47.3307 45.8783 332° Northwest  Level Estimated
08:46AM 47.4289 45.8010 332° Northwest  Level Estimated
08:47AM 47.5271 45.7234 332° Northwest  Level Estimated
08:48AM 47.6252 45.6456 332° Northwest  Level Estimated
08:49AM 47.7232 45.5674 332° Northwest  Level Estimated
08:50AM 47.8212 45.4890 332° Northwest  Level Estimated
08:51AM 47.9191 45.4103 332° Northwest  Level Estimated
08:52AM 48.0170 45.3312 332° Northwest  Level Estimated
08:53AM 48.1148 45.2519 332° Northwest  Level Estimated
08:54AM 48.2126 45.1722 332° Northwest  Level Estimated
08:55AM 48.3103 45.0923 331° Northwest  Level Estimated
08:56AM 48.4080 45.0120 331° Northwest  Level Estimated
08:57AM 48.5056 44.9314 331° Northwest  Level Estimated
08:58AM 48.6031 44.8506 331° Northwest  Level Estimated
08:59AM 48.7006 44.7694 331° Northwest  Level Estimated
09:00AM 48.7980 44.6879 331° Northwest  Level Estimated
09:01AM 48.8954 44.6061 331° Northwest  Level Estimated
09:02AM 48.9927 44.5239 331° Northwest  Level Estimated
09:03AM 49.0900 44.4415 331° Northwest  Level Estimated
09:04AM 49.1872 44.3587 331° Northwest  Level Estimated
09:05AM 49.2843 44.2756 331° Northwest  Level Estimated
09:06AM 49.3814 44.1921 331° Northwest  Level Estimated
09:07AM 49.4784 44.1084 331° Northwest  Level Estimated
09:08AM 49.5754 44.0243 331° Northwest  Level Estimated
09:09AM 49.6723 43.9398 331° Northwest  Level Estimated
09:10AM 49.7691 43.8550 331° Northwest  Level Estimated
09:11AM 49.8659 43.7699 330° Northwest  Level Estimated
09:12AM 49.9626 43.6845 330° Northwest  Level Estimated
09:13AM 50.0592 43.5987 330° Northwest  Level Estimated
09:14AM 50.1558 43.5125 330° Northwest  Level Estimated
09:15AM 50.2523 43.4260 330° Northwest  Level Estimated
09:16AM 50.3488 43.3392 330° Northwest  Level Estimated
09:17AM 50.4452 43.2520 330° Northwest  Level Estimated
09:18AM 50.5415 43.1645 330° Northwest  Level Estimated
09:19AM 50.6378 43.0765 330° Northwest  Level Estimated
09:20AM 50.7340 42.9883 330° Northwest  Level Estimated
09:21AM 50.8301 42.8996 330° Northwest  Level Estimated
09:22AM 50.9262 42.8106 330° Northwest  Level Estimated
09:23AM 51.0221 42.7213 330° Northwest  Level Estimated
09:24AM 51.1181 42.6315 330° Northwest  Level Estimated
09:25AM 51.2139 42.5414 330° Northwest  Level Estimated
09:26AM 51.3097 42.4509 329° Northwest  Level Estimated
09:27AM 51.4054 42.3601 329° Northwest  Level Estimated
09:28AM 51.5011 42.2688 329° Northwest  Level Estimated
09:29AM 51.5966 42.1772 329° Northwest  Level Estimated
09:30AM 51.6921 42.0852 329° Northwest  Level Estimated
09:31AM 51.7876 41.9927 329° Northwest  Level Estimated
09:32AM 51.8829 41.8999 329° Northwest  Level Estimated
09:33AM 51.9782 41.8067 329° Northwest  Level Estimated
09:34AM 52.0734 41.7132 329° Northwest  Level Estimated
09:35AM 52.1685 41.6192 329° Northwest  Level Estimated
09:36AM 52.2636 41.5248 329° Northwest  Level Estimated
09:37AM 52.3586 41.4300 329° Northwest  Level Estimated
09:38AM 52.4535 41.3348 329° Northwest  Level Estimated
09:39AM 52.5483 41.2392 328° Northwest  Level Estimated
09:40AM 52.6431 41.1431 328° Northwest  Level Estimated
09:41AM 52.7378 41.0467 328° Northwest  Level Estimated
09:42AM 52.8323 40.9498 328° Northwest  Level Estimated
09:43AM 52.9269 40.8525 328° Northwest  Level Estimated
09:44AM 53.0213 40.7548 328° Northwest  Level Estimated
09:45AM 53.1157 40.6566 328° Northwest  Level Estimated
09:46AM 53.2099 40.5581 328° Northwest  Level Estimated
09:47AM 53.3041 40.4591 328° Northwest  Level Estimated
09:48AM 53.3982 40.3596 328° Northwest  Level Estimated
09:49AM 53.4923 40.2597 328° Northwest  Level Estimated
09:50AM 53.5862 40.1594 328° Northwest  Level Estimated
09:51AM 53.6801 40.0586 328° Northwest  Level Estimated
09:52AM 53.7738 39.9574 327° Northwest  Level Estimated
09:53AM 53.8675 39.8557 327° Northwest  Level Estimated
09:54AM 53.9611 39.7536 327° Northwest  Level Estimated
09:55AM 54.0546 39.6510 327° Northwest  Level Estimated
09:56AM 54.1481 39.5479 327° Northwest  Level Estimated
09:56AM 55.2173 38.2109 322° Northwest 353 406 18,800  Level FlightAware ADS-B
09:56AM 55.2610 38.1256 310° West 344 396 17,700 -1,500 Descending FlightAware ADS-B
09:57AM 55.2917 38.0639 313° West 342 394 17,000 -1,020 Descending FlightAware ADS-B
09:57AM 55.3074 38.0410 327° Northwest 345 397 17,000  Level FlightAware ADS-B
09:57AM 55.3207 38.0306 340° North 345 397 17,000  Level FlightAware ADS-B
09:57AM 55.3367 38.0242 351° North 338 389 17,000  Level FlightAware ADS-B
09:58AM 55.3819 38.0083 343° North 323 372 17,000 -720 Level FlightAware ADS-B
09:58AM 55.4241 37.9856 343° North 327 376 16,300 -2,040 Descending FlightAware ADS-B
09:59AM 55.4732 37.9595 343° North 337 388 14,900 -1,980 Descending FlightAware ADS-B
09:59AM 55.5273 37.9312 343° North 330 380 14,000 -1,560 Descending FlightAware ADS-B
10:00AM 55.5683 37.9127 352° North 325 374 13,200 -1,440 Descending FlightAware ADS-B
10:00AM 55.6160 37.9046 355° North 314 361 12,600 -1,140 Descending FlightAware ADS-B
10:01AM 55.6581 37.8976 355° North 302 348 12,100 -1,200 Descending FlightAware ADS-B
10:01AM 55.6969 37.8914 355° North 294 338 11,400 -960 Descending FlightAware ADS-B
10:02AM 55.7530 37.8821 355° North 293 337 11,000 -360 Descending FlightAware ADS-B
10:03AM 55.8034 37.8740 355° North 265 305 11,000  Level FlightAware ADS-B
10:03AM 55.8375 37.8682 355° North 253 291 11,000 -720 Level FlightAware ADS-B
10:04AM 55.8716 37.8497 320° Northwest 258 297 10,300 -1,500 Descending FlightAware ADS-B
10:04AM 55.8793 37.8336 308° West 260 299 10,000 -1,560 Descending FlightAware ADS-B
10:04AM 55.8938 37.7967 305° West 257 296 9,500 -1,080 Descending FlightAware ADS-B
10:05AM 55.9070 37.7638 306° West 248 285 9,300 -780 Descending FlightAware ADS-B
10:05AM 55.9198 37.7299 300° West 240 276 9,000 -480 Descending FlightAware ADS-B
10:05AM 55.9283 37.6999 297° West 245 282 9,000  Level FlightAware ADS-B
10:08AM 55.9726 37.4146 286° West  Level Estimated
10:09AM 55.9726 37.4146 North  Level Estimated
10:10AM 55.9726 37.4146 North  Level Estimated
10:11AM 55.9726 37.4146 North  Level Estimated
10:12AM 55.9726 37.4146 North  Level Estimated
10:13AM 55.9726 37.4146 North  Level Estimated
10:14AM 55.9726 37.4146 North  Level Estimated
10:15AM 55.9726 37.4146 North  Level Estimated
10:16AM 55.9726 37.4146 North  Level Estimated
10:17AM 55.9726 37.4146 North  Level Estimated
10:18AM 55.9726 37.4146 North  Level Estimated
10:19AM 55.9726 37.4146 North  Level Estimated
10:20AM 55.9726 37.4146 North  Level Estimated
10:21AM 55.9726 37.4146 North  Level Estimated